Time;durP1;ratioP1;P1;durP2;ratioP2;P2;SDS_P1;SDS_P2;PMS_P1;PMS_P2;Temp;Humidity;BMP_temperature;BMP_pressure;BME280_temperature;BME280_humidity;BME280_pressure;Samples;Min_cycle;Max_cycle;Signal;HPM_P1;HPM_P2
2023/08/31 00:00:47;;;;;;;3.13;1.40;;;13.20;99.90;;;;;;4188157;28;20225;-76
2023/08/31 00:02:49;;;;;;;2.00;1.27;;;13.10;99.90;;;;;;4192132;28;20218;-75
2023/08/31 00:04:54;;;;;;;2.60;1.27;;;13.10;99.90;;;;;;4195827;28;20210;-75
2023/08/31 00:06:56;;;;;;;3.37;1.50;;;13.10;99.90;;;;;;4195344;28;20293;-76
2023/08/31 00:08:58;;;;;;;3.60;1.57;;;13.00;99.90;;;;;;4187797;28;20217;-77
2023/08/31 00:11:01;;;;;;;2.43;1.40;;;13.00;99.90;;;;;;4190410;28;20951;-76
2023/08/31 00:13:03;;;;;;;2.57;1.50;;;13.00;99.90;;;;;;4182315;28;20198;-76
2023/08/31 00:15:06;;;;;;;2.00;1.50;;;12.90;99.90;;;;;;4179646;28;20283;-76
2023/08/31 00:17:08;;;;;;;2.20;1.50;;;12.90;99.90;;;;;;4187521;28;20541;-76
2023/08/31 00:19:10;;;;;;;2.30;1.50;;;12.80;99.90;;;;;;4181517;28;20630;-77
2023/08/31 00:21:13;;;;;;;2.40;1.53;;;12.80;99.90;;;;;;4191222;28;20248;-77
2023/08/31 00:23:14;;;;;;;2.73;1.77;;;12.80;99.90;;;;;;4186756;28;20228;-76
2023/08/31 00:25:17;;;;;;;3.87;1.60;;;12.80;99.90;;;;;;4188604;28;20193;-77
2023/08/31 00:27:20;;;;;;;2.63;1.77;;;12.80;99.90;;;;;;4188954;28;20564;-76
2023/08/31 00:29:23;;;;;;;7.73;1.70;;;12.70;99.90;;;;;;4191937;28;20230;-76
2023/08/31 00:31:26;;;;;;;2.00;1.53;;;12.70;99.90;;;;;;4186493;28;20232;-76
2023/08/31 00:33:28;;;;;;;3.07;1.70;;;12.70;99.90;;;;;;4194978;28;20210;-76
2023/08/31 00:35:30;;;;;;;2.50;1.90;;;12.70;99.90;;;;;;4188448;28;20722;-76
2023/08/31 00:37:34;;;;;;;2.40;1.53;;;12.70;99.90;;;;;;4190855;28;20204;-76
2023/08/31 00:39:36;;;;;;;3.10;1.87;;;12.70;99.90;;;;;;4186415;28;20210;-76
2023/08/31 00:41:38;;;;;;;2.83;1.70;;;12.70;99.90;;;;;;4187663;28;20206;-76
2023/08/31 00:43:40;;;;;;;2.80;1.70;;;12.70;99.90;;;;;;4195167;28;20206;-76
2023/08/31 00:45:42;;;;;;;5.03;1.80;;;12.70;99.90;;;;;;4193965;28;20194;-76
2023/08/31 00:47:43;;;;;;;3.80;1.80;;;12.60;99.90;;;;;;4186267;28;20210;-77
2023/08/31 00:49:45;;;;;;;3.23;1.67;;;12.70;99.90;;;;;;4194457;28;20756;-75
2023/08/31 00:51:49;;;;;;;3.13;1.70;;;12.70;99.90;;;;;;4187832;28;20908;-76
2023/08/31 00:53:54;;;;;;;3.47;1.73;;;12.60;99.90;;;;;;4195333;28;20535;-75
2023/08/31 00:55:56;;;;;;;4.00;1.53;;;12.60;99.90;;;;;;4192810;28;20555;-76
2023/08/31 00:57:59;;;;;;;2.07;1.50;;;12.60;99.90;;;;;;4190288;28;20244;-75
2023/08/31 01:00:02;;;;;;;2.43;1.57;;;12.60;99.90;;;;;;4189291;28;20228;-76
2023/08/31 01:02:13;;;;;;;4.00;1.90;;;12.50;99.90;;;;;;4194449;28;20218;-76
2023/08/31 01:04:22;;;;;;;2.57;1.50;;;12.50;99.90;;;;;;4188133;28;20325;-75
2023/08/31 01:06:35;;;;;;;2.50;1.60;;;12.50;99.90;;;;;;4193004;28;20722;-75
2023/08/31 01:08:44;;;;;;;2.03;1.43;;;12.50;99.90;;;;;;4191105;28;20258;-74
2023/08/31 01:10:58;;;;;;;2.63;1.43;;;12.50;99.90;;;;;;4195786;28;20233;-75
2023/08/31 01:13:03;;;;;;;1.93;1.40;;;12.40;99.90;;;;;;4196599;28;20239;-74
2023/08/31 01:15:07;;;;;;;2.63;1.60;;;12.50;99.90;;;;;;4193082;28;20201;-74
2023/08/31 01:17:11;;;;;;;4.23;1.40;;;12.40;99.90;;;;;;4197318;28;20214;-74
2023/08/31 01:19:25;;;;;;;2.77;1.70;;;12.40;99.90;;;;;;4188146;28;20259;-74
2023/08/31 01:21:34;;;;;;;3.40;1.80;;;12.40;99.90;;;;;;4195350;28;20225;-75
2023/08/31 01:23:54;;;;;;;3.17;1.97;;;12.40;99.90;;;;;;4195155;28;20581;-75
2023/08/31 01:25:56;;;;;;;2.33;1.70;;;12.40;99.90;;;;;;4195805;28;20250;-75
2023/08/31 01:28:00;;;;;;;3.00;1.40;;;12.40;99.90;;;;;;4183461;28;20252;-75
2023/08/31 01:30:01;;;;;;;2.63;1.60;;;12.40;99.90;;;;;;4191262;28;20284;-74
2023/08/31 01:32:07;;;;;;;2.03;1.60;;;12.30;99.90;;;;;;4190667;28;20202;-74
2023/08/31 01:34:09;;;;;;;3.17;1.80;;;12.30;99.90;;;;;;4186391;28;20256;-74
2023/08/31 01:36:18;;;;;;;1.93;1.33;;;12.30;99.90;;;;;;4190458;28;20273;-74
2023/08/31 01:38:25;;;;;;;3.20;1.50;;;12.40;99.90;;;;;;4184852;28;20698;-74
2023/08/31 01:40:33;;;;;;;3.07;1.60;;;12.30;99.90;;;;;;4193217;28;20230;-74
2023/08/31 01:42:36;;;;;;;2.53;1.47;;;12.30;99.90;;;;;;4190745;28;20677;-75
2023/08/31 01:44:39;;;;;;;2.10;1.60;;;12.30;99.90;;;;;;4187587;28;20652;-74
2023/08/31 01:46:42;;;;;;;3.93;1.53;;;12.20;99.90;;;;;;4194662;28;20585;-74
2023/08/31 01:48:44;;;;;;;8.50;2.43;;;12.20;99.90;;;;;;4193969;28;20259;-74
2023/08/31 01:50:46;;;;;;;2.17;1.50;;;12.20;99.90;;;;;;4188994;28;20267;-74
2023/08/31 01:52:48;;;;;;;3.00;1.57;;;12.20;99.90;;;;;;4189743;28;20210;-75
2023/08/31 01:54:50;;;;;;;1.93;1.43;;;12.20;99.90;;;;;;4191708;28;20670;-75
2023/08/31 01:56:52;;;;;;;1.57;1.17;;;12.20;99.90;;;;;;4185426;28;20695;-74
2023/08/31 01:58:54;;;;;;;6.60;1.60;;;12.20;99.90;;;;;;4191423;28;20212;-74
2023/08/31 02:00:56;;;;;;;2.63;1.30;;;12.10;99.90;;;;;;4195565;28;20229;-74
2023/08/31 02:02:58;;;;;;;2.53;1.50;;;12.20;99.90;;;;;;4186011;28;20207;-75
2023/08/31 02:05:01;;;;;;;2.10;1.40;;;12.20;99.90;;;;;;4186407;28;20228;-74
2023/08/31 02:07:03;;;;;;;3.27;1.47;;;12.10;99.90;;;;;;4183539;28;20248;-74
2023/08/31 02:09:06;;;;;;;3.10;1.40;;;12.10;99.90;;;;;;4192059;28;20778;-75
2023/08/31 02:11:08;;;;;;;1.57;1.30;;;12.10;99.90;;;;;;4192953;28;20249;-74
2023/08/31 02:13:10;;;;;;;2.93;1.63;;;12.10;99.90;;;;;;4193559;28;20210;-74
2023/08/31 02:15:12;;;;;;;1.20;1.07;;;12.10;99.90;;;;;;4190622;28;20672;-74
2023/08/31 02:17:14;;;;;;;2.37;1.33;;;12.10;99.90;;;;;;4194024;28;20730;-74
2023/08/31 02:19:16;;;;;;;1.87;1.40;;;12.00;99.90;;;;;;4193047;28;20276;-74
2023/08/31 02:21:19;;;;;;;1.90;1.40;;;12.00;99.90;;;;;;4187536;28;20725;-74
2023/08/31 02:23:21;;;;;;;2.17;1.40;;;12.00;99.90;;;;;;4192751;28;20214;-74
2023/08/31 02:25:23;;;;;;;2.50;1.20;;;12.00;99.90;;;;;;4184054;28;20660;-74
2023/08/31 02:27:24;;;;;;;3.13;1.60;;;12.00;99.90;;;;;;4184997;28;20674;-74
2023/08/31 02:29:28;;;;;;;3.67;1.67;;;12.00;99.90;;;;;;4196695;28;20192;-74
2023/08/31 02:31:30;;;;;;;2.67;1.70;;;12.00;99.90;;;;;;4196510;28;20237;-74
2023/08/31 02:33:32;;;;;;;3.17;1.80;;;12.00;99.90;;;;;;4196016;28;20202;-74
2023/08/31 02:35:34;;;;;;;2.97;1.80;;;12.00;99.90;;;;;;4193584;28;20666;-74
2023/08/31 02:37:35;;;;;;;4.47;1.80;;;12.00;99.90;;;;;;4192452;28;20250;-74
2023/08/31 02:39:39;;;;;;;3.53;1.50;;;11.90;99.90;;;;;;4193063;28;20750;-74
2023/08/31 02:41:41;;;;;;;3.33;2.07;;;11.90;99.90;;;;;;4192812;28;20237;-74
2023/08/31 02:43:43;;;;;;;2.57;1.50;;;12.00;99.90;;;;;;4190697;28;20262;-74
2023/08/31 02:45:47;;;;;;;1.80;1.40;;;12.00;99.90;;;;;;4193831;28;20202;-74
2023/08/31 02:47:49;;;;;;;3.77;1.77;;;12.00;99.90;;;;;;4189629;28;20217;-75
2023/08/31 02:49:51;;;;;;;2.73;1.63;;;12.00;99.90;;;;;;4191875;28;20630;-74
2023/08/31 02:51:52;;;;;;;2.87;1.63;;;12.00;99.90;;;;;;4191206;28;20206;-74
2023/08/31 02:53:54;;;;;;;2.27;1.70;;;12.00;99.90;;;;;;4190033;28;20255;-74
2023/08/31 02:55:55;;;;;;;4.00;1.67;;;12.00;99.90;;;;;;4192162;28;20250;-74
2023/08/31 02:57:57;;;;;;;3.70;1.90;;;12.00;99.90;;;;;;4187790;28;20205;-75
2023/08/31 02:59:59;;;;;;;2.80;1.67;;;12.10;99.90;;;;;;4189663;28;20229;-75
2023/08/31 03:02:04;;;;;;;3.63;1.90;;;12.00;99.90;;;;;;4187948;28;20217;-74
2023/08/31 03:04:06;;;;;;;3.17;1.70;;;12.10;99.90;;;;;;4190337;28;20209;-74
2023/08/31 03:06:08;;;;;;;3.67;2.13;;;12.10;99.90;;;;;;4186401;28;20202;-73
2023/08/31 03:08:10;;;;;;;4.07;2.20;;;12.10;99.90;;;;;;4190889;28;21014;-74
2023/08/31 03:10:11;;;;;;;3.53;2.10;;;12.10;99.90;;;;;;4190796;28;20228;-75
2023/08/31 03:12:13;;;;;;;3.67;2.00;;;12.10;99.90;;;;;;4190332;28;20198;-74
2023/08/31 03:14:15;;;;;;;5.10;2.60;;;12.10;99.90;;;;;;4195566;28;20201;-75
2023/08/31 03:16:17;;;;;;;5.43;3.00;;;12.10;99.90;;;;;;4188826;28;20290;-74
2023/08/31 03:18:20;;;;;;;2.93;2.37;;;12.10;99.90;;;;;;4184107;28;20255;-74
2023/08/31 03:20:21;;;;;;;4.43;2.27;;;12.10;99.90;;;;;;4185541;28;20293;-74
2023/08/31 03:22:23;;;;;;;4.03;2.73;;;12.10;99.90;;;;;;4187238;28;20243;-75
2023/08/31 03:24:25;;;;;;;4.67;2.53;;;12.10;99.90;;;;;;4188605;28;20202;-73
2023/08/31 03:26:26;;;;;;;3.50;2.57;;;12.10;99.90;;;;;;4189036;28;20565;-74
2023/08/31 03:28:28;;;;;;;3.73;2.37;;;12.10;99.90;;;;;;4185884;28;20201;-74
2023/08/31 03:30:30;;;;;;;6.13;2.70;;;12.20;99.90;;;;;;4188030;28;20225;-74
2023/08/31 03:32:31;;;;;;;5.07;2.90;;;12.10;99.90;;;;;;4190297;28;20206;-75
2023/08/31 03:34:34;;;;;;;4.50;3.17;;;12.10;99.90;;;;;;4189316;28;20729;-74
2023/08/31 03:36:37;;;;;;;6.77;3.20;;;12.10;99.90;;;;;;4189277;28;20221;-74
2023/08/31 03:38:38;;;;;;;7.90;3.50;;;12.20;99.90;;;;;;4188411;28;20209;-74
2023/08/31 03:40:41;;;;;;;4.60;3.10;;;12.20;99.90;;;;;;4185833;28;20876;-74
2023/08/31 03:42:42;;;;;;;5.80;3.47;;;12.20;99.90;;;;;;4189522;28;20206;-74
2023/08/31 03:44:44;;;;;;;6.17;3.50;;;12.20;99.90;;;;;;4189110;28;20206;-74
2023/08/31 03:46:46;;;;;;;11.20;4.40;;;12.20;99.90;;;;;;4189878;28;20672;-75
2023/08/31 03:48:48;;;;;;;7.40;4.40;;;12.20;99.90;;;;;;4186615;28;20228;-74
2023/08/31 03:50:52;;;;;;;13.40;4.57;;;12.20;99.90;;;;;;4180314;28;20227;-74
2023/08/31 03:52:54;;;;;;;10.97;4.20;;;12.20;99.90;;;;;;4183843;28;20211;-74
2023/08/31 03:54:56;;;;;;;7.03;4.27;;;12.20;99.90;;;;;;4192144;28;20717;-76
2023/08/31 03:56:58;;;;;;;6.17;3.70;;;12.20;99.90;;;;;;4195016;28;20210;-74
2023/08/31 03:59:03;;;;;;;5.57;3.93;;;12.20;99.90;;;;;;4191696;28;20870;-74
2023/08/31 04:01:05;;;;;;;6.20;4.27;;;12.20;99.90;;;;;;4183731;28;20684;-74
2023/08/31 04:03:08;;;;;;;6.93;4.70;;;12.20;99.90;;;;;;4187348;28;20202;-74
2023/08/31 04:05:10;;;;;;;6.63;4.43;;;12.20;99.90;;;;;;4184475;28;20779;-74
2023/08/31 04:07:13;;;;;;;8.90;4.47;;;12.20;99.90;;;;;;4184259;28;20212;-74
2023/08/31 04:09:15;;;;;;;7.90;5.13;;;12.20;99.90;;;;;;4186544;28;20253;-75
2023/08/31 04:11:17;;;;;;;10.73;5.20;;;12.20;99.90;;;;;;4194913;28;20230;-74
2023/08/31 04:13:19;;;;;;;10.53;5.70;;;12.20;99.90;;;;;;4195387;28;20278;-74
2023/08/31 04:15:21;;;;;;;11.10;6.20;;;12.20;99.90;;;;;;4189352;28;20770;-73
2023/08/31 04:17:23;;;;;;;7.80;4.93;;;12.20;99.90;;;;;;4190094;28;20245;-74
2023/08/31 04:19:25;;;;;;;13.70;6.63;;;12.20;99.90;;;;;;4192468;28;20212;-74
2023/08/31 04:21:27;;;;;;;13.83;7.13;;;12.20;99.90;;;;;;4190077;28;20916;-74
2023/08/31 04:23:31;;;;;;;18.00;7.60;;;12.20;99.90;;;;;;4186805;28;20216;-74
2023/08/31 04:25:33;;;;;;;10.70;6.27;;;12.20;99.90;;;;;;4182683;28;20261;-74
2023/08/31 04:27:36;;;;;;;15.07;8.10;;;12.30;99.90;;;;;;4192103;28;20198;-74
2023/08/31 04:29:38;;;;;;;17.53;9.43;;;12.30;99.90;;;;;;4188448;28;20256;-74
2023/08/31 04:31:40;;;;;;;25.60;9.77;;;12.30;99.90;;;;;;4195206;28;20220;-73
2023/08/31 04:33:42;;;;;;;18.30;9.83;;;12.30;99.90;;;;;;4191117;28;20784;-74
2023/08/31 04:35:43;;;;;;;15.70;8.97;;;12.30;99.90;;;;;;4192040;28;20286;-74
2023/08/31 04:37:46;;;;;;;19.83;10.00;;;12.30;99.90;;;;;;4205010;28;20260;-73
2023/08/31 04:39:50;;;;;;;17.93;10.63;;;12.30;99.90;;;;;;4186778;28;20722;-75
2023/08/31 04:41:52;;;;;;;16.27;10.10;;;12.30;99.90;;;;;;4189410;28;20207;-73
2023/08/31 04:43:53;;;;;;;17.27;9.40;;;12.30;99.90;;;;;;4189853;28;20203;-73
2023/08/31 04:45:56;;;;;;;17.03;8.87;;;12.30;99.90;;;;;;4183023;28;20209;-73
2023/08/31 04:47:58;;;;;;;13.20;8.80;;;12.30;99.90;;;;;;4185874;28;20325;-76
2023/08/31 04:50:00;;;;;;;12.73;8.57;;;12.40;99.90;;;;;;4187784;28;20240;-73
2023/08/31 04:52:02;;;;;;;14.97;8.60;;;12.40;99.90;;;;;;4187542;28;20198;-74
2023/08/31 04:54:04;;;;;;;17.33;8.47;;;12.40;99.90;;;;;;4186274;28;20204;-73
2023/08/31 04:56:08;;;;;;;12.47;7.50;;;12.40;99.90;;;;;;4186163;28;20215;-73
2023/08/31 04:58:09;;;;;;;12.93;7.93;;;12.40;99.90;;;;;;4184117;28;20917;-73
2023/08/31 05:00:12;;;;;;;11.07;7.83;;;12.40;99.90;;;;;;4190723;28;20224;-75
2023/08/31 05:02:14;;;;;;;13.77;9.13;;;12.40;99.90;;;;;;4187392;28;20213;-74
2023/08/31 05:04:17;;;;;;;17.30;8.00;;;12.40;99.90;;;;;;4179690;28;20217;-77
2023/08/31 05:06:18;;;;;;;14.23;8.43;;;12.40;99.90;;;;;;4183895;28;20214;-76
2023/08/31 05:08:20;;;;;;;14.67;8.57;;;12.40;99.90;;;;;;4189389;28;20207;-77
2023/08/31 05:10:22;;;;;;;17.20;9.43;;;12.40;99.90;;;;;;4182999;28;20237;-75
2023/08/31 05:12:25;;;;;;;13.33;7.67;;;12.50;99.90;;;;;;4182435;28;20259;-75
2023/08/31 05:14:26;;;;;;;13.87;8.13;;;12.40;99.90;;;;;;4184721;28;20215;-76
2023/08/31 05:16:27;;;;;;;13.20;8.13;;;12.50;99.90;;;;;;4191451;28;20209;-74
2023/08/31 05:18:29;;;;;;;16.73;8.47;;;12.50;99.90;;;;;;4195237;28;20737;-75
2023/08/31 05:20:31;;;;;;;13.13;8.13;;;12.50;99.90;;;;;;4192765;28;20308;-75
2023/08/31 05:22:33;;;;;;;17.30;8.63;;;12.40;99.90;;;;;;4194979;28;20940;-75
2023/08/31 05:24:35;;;;;;;12.97;7.73;;;12.50;99.90;;;;;;4188821;28;20216;-76
2023/08/31 05:26:37;;;;;;;16.00;8.70;;;12.50;99.90;;;;;;4188759;28;20774;-75
2023/08/31 05:28:40;;;;;;;12.80;8.13;;;12.50;99.90;;;;;;4189600;28;20213;-76
2023/08/31 05:30:50;;;;;;;13.47;7.73;;;12.50;99.90;;;;;;4188367;28;20813;-77
2023/08/31 05:32:52;;;;;;;17.27;8.37;;;12.50;99.90;;;;;;4181655;28;20682;-77
2023/08/31 05:34:54;;;;;;;14.07;7.80;;;12.50;99.90;;;;;;4187256;28;20664;-75
2023/08/31 05:36:56;;;;;;;14.93;8.70;;;12.50;99.90;;;;;;4188878;28;20269;-75
2023/08/31 05:38:58;;;;;;;13.93;8.20;;;12.50;99.90;;;;;;4182295;28;20688;-75
2023/08/31 05:41:09;;;;;;;17.37;8.90;;;12.60;99.90;;;;;;4187483;28;20279;-76
2023/08/31 05:43:11;;;;;;;14.07;8.67;;;12.60;99.90;;;;;;4188442;28;20214;-77
2023/08/31 05:45:15;;;;;;;14.17;9.10;;;12.60;99.90;;;;;;4194331;28;20662;-77
2023/08/31 05:47:17;;;;;;;17.70;9.07;;;12.60;99.90;;;;;;4190608;28;20207;-77
2023/08/31 05:49:19;;;;;;;14.43;7.73;;;12.50;99.90;;;;;;4186865;28;20220;-77
2023/08/31 05:51:21;;;;;;;15.80;9.07;;;12.50;99.90;;;;;;4189978;28;20899;-76
2023/08/31 05:53:23;;;;;;;13.27;8.17;;;12.50;99.90;;;;;;4187651;28;20408;-77
2023/08/31 05:55:25;;;;;;;14.10;8.77;;;12.50;99.90;;;;;;4190705;28;20206;-76
2023/08/31 05:57:27;;;;;;;14.37;9.67;;;12.50;99.90;;;;;;4191999;28;20213;-77
2023/08/31 05:59:29;;;;;;;16.80;9.30;;;12.50;99.90;;;;;;4184948;28;20195;-76
2023/08/31 06:01:33;;;;;;;13.30;8.50;;;12.60;99.90;;;;;;4190344;28;20279;-77
2023/08/31 06:03:35;;;;;;;13.43;8.63;;;12.50;99.90;;;;;;4188343;28;20604;-77
2023/08/31 06:05:38;;;;;;;16.47;9.93;;;12.60;99.90;;;;;;4190655;28;20207;-76
2023/08/31 06:07:40;;;;;;;19.83;9.67;;;12.60;99.90;;;;;;4186651;28;20205;-75
2023/08/31 06:09:41;;;;;;;14.13;8.77;;;12.60;99.90;;;;;;4190309;28;20996;-76
2023/08/31 06:11:43;;;;;;;16.20;9.60;;;12.60;99.90;;;;;;4193608;28;20263;-76
2023/08/31 06:13:45;;;;;;;16.57;9.27;;;12.60;99.90;;;;;;4187276;28;20711;-76
2023/08/31 06:15:47;;;;;;;18.90;9.10;;;12.60;99.90;;;;;;4194851;28;20215;-76
2023/08/31 06:17:50;;;;;;;15.23;9.23;;;12.60;99.90;;;;;;4190910;28;20636;-76
2023/08/31 06:19:52;;;;;;;16.50;9.03;;;12.60;99.90;;;;;;4194627;28;20197;-76
2023/08/31 06:21:54;;;;;;;13.37;8.90;;;12.70;99.90;;;;;;4184033;28;20210;-75
2023/08/31 06:23:56;;;;;;;14.50;9.40;;;12.70;99.90;;;;;;4192210;28;20620;-70
2023/08/31 06:25:58;;;;;;;14.80;9.03;;;12.70;99.90;;;;;;4190090;28;20206;-71
2023/08/31 06:27:59;;;;;;;15.17;8.53;;;12.80;99.90;;;;;;4189030;28;20298;-72
2023/08/31 06:30:01;;;;;;;16.00;9.03;;;12.80;99.90;;;;;;4189746;28;20226;-71
2023/08/31 06:32:03;;;;;;;15.07;8.47;;;12.80;99.90;;;;;;4183532;28;20202;-72
2023/08/31 06:34:06;;;;;;;15.63;9.20;;;12.80;99.90;;;;;;4196219;28;20210;-72
2023/08/31 06:36:07;;;;;;;12.63;8.67;;;12.70;99.90;;;;;;4197300;28;20214;-71
2023/08/31 06:38:09;;;;;;;14.93;9.00;;;12.80;99.90;;;;;;4194611;28;20225;-72
2023/08/31 06:40:13;;;;;;;15.03;8.87;;;12.80;99.90;;;;;;4190967;28;20219;-73
2023/08/31 06:42:15;;;;;;;14.70;8.93;;;12.90;99.90;;;;;;4187486;28;20250;-72
2023/08/31 06:44:17;;;;;;;13.30;9.17;;;12.90;99.90;;;;;;4191991;28;20214;-72
2023/08/31 06:46:19;;;;;;;11.47;8.30;;;12.90;99.90;;;;;;4187326;28;20240;-72
2023/08/31 06:48:21;;;;;;;14.07;8.70;;;12.90;99.90;;;;;;4188456;28;20682;-72
2023/08/31 06:50:24;;;;;;;17.13;9.17;;;12.90;99.90;;;;;;4194181;28;20229;-72
2023/08/31 06:52:25;;;;;;;13.30;7.73;;;12.90;99.90;;;;;;4187343;28;20279;-71
2023/08/31 06:54:27;;;;;;;13.90;7.77;;;13.00;99.90;;;;;;4190512;28;20709;-70
2023/08/31 06:56:29;;;;;;;13.87;7.70;;;13.00;99.90;;;;;;4194218;28;20258;-70
2023/08/31 06:58:31;;;;;;;13.93;7.60;;;13.00;99.90;;;;;;4194267;28;20229;-71
2023/08/31 07:00:33;;;;;;;14.67;7.57;;;13.00;99.90;;;;;;4188151;28;20223;-71
2023/08/31 07:02:35;;;;;;;9.13;6.77;;;13.10;99.90;;;;;;4191916;28;20265;-72
2023/08/31 07:04:37;;;;;;;11.57;6.43;;;13.20;99.90;;;;;;4191905;28;20285;-73
2023/08/31 07:06:40;;;;;;;11.47;6.97;;;13.20;99.90;;;;;;4189247;28;20211;-72
2023/08/31 07:08:45;;;;;;;11.57;6.73;;;13.30;99.90;;;;;;4187483;28;20653;-72
2023/08/31 07:10:47;;;;;;;13.80;7.20;;;13.30;99.90;;;;;;4186930;28;20245;-72
2023/08/31 07:12:49;;;;;;;11.50;6.57;;;13.30;99.90;;;;;;4188472;28;20259;-74
2023/08/31 07:14:51;;;;;;;9.93;6.63;;;13.30;99.90;;;;;;4188472;28;20251;-73
2023/08/31 07:16:53;;;;;;;11.57;6.90;;;13.40;99.90;;;;;;4193422;28;20242;-72
2023/08/31 07:18:54;;;;;;;11.53;6.07;;;13.40;99.90;;;;;;4193324;28;20280;-72
2023/08/31 07:20:55;;;;;;;10.67;6.33;;;13.50;99.90;;;;;;4190258;28;20706;-72
2023/08/31 07:22:59;;;;;;;17.43;8.17;;;13.50;99.90;;;;;;4187652;28;20206;-73
2023/08/31 07:25:01;;;;;;;9.53;6.53;;;13.60;99.90;;;;;;4192879;28;20207;-71
2023/08/31 07:27:04;;;;;;;13.10;6.60;;;13.70;99.90;;;;;;4186517;28;20212;-72
2023/08/31 07:29:06;;;;;;;15.30;7.07;;;13.80;99.90;;;;;;4194516;28;20216;-71
2023/08/31 07:31:08;;;;;;;11.40;7.57;;;13.80;99.90;;;;;;4185235;28;20237;-72
2023/08/31 07:33:10;;;;;;;11.13;6.03;;;13.90;99.90;;;;;;4186568;28;20208;-70
2023/08/31 07:35:12;;;;;;;12.27;6.80;;;13.90;99.90;;;;;;4189137;28;20603;-70
2023/08/31 07:37:14;;;;;;;10.17;5.97;;;13.90;99.90;;;;;;4206598;28;20615;-71
2023/08/31 07:39:18;;;;;;;9.33;6.27;;;14.00;99.90;;;;;;4192923;28;20574;-72
2023/08/31 07:41:20;;;;;;;11.00;6.20;;;14.00;99.90;;;;;;4190534;28;20316;-70
2023/08/31 07:43:22;;;;;;;9.40;5.83;;;14.00;99.90;;;;;;4191854;28;20235;-71
2023/08/31 07:45:24;;;;;;;8.70;6.07;;;14.00;99.90;;;;;;4189581;28;20203;-71
2023/08/31 07:47:26;;;;;;;12.23;7.03;;;14.00;99.90;;;;;;4190211;28;20674;-72
2023/08/31 07:49:28;;;;;;;13.67;6.20;;;14.00;99.90;;;;;;4189567;28;20375;-71
2023/08/31 07:51:30;;;;;;;9.13;6.57;;;14.00;99.90;;;;;;4188781;28;20261;-70
2023/08/31 07:53:32;;;;;;;13.27;6.47;;;14.00;99.90;;;;;;4190529;28;20269;-72
2023/08/31 07:55:35;;;;;;;11.47;6.90;;;14.10;99.90;;;;;;4188918;28;20218;-71
2023/08/31 07:57:37;;;;;;;10.77;6.17;;;14.10;99.90;;;;;;4185002;28;20249;-71
2023/08/31 07:59:39;;;;;;;11.70;6.13;;;14.20;99.90;;;;;;4186688;28;20238;-72
2023/08/31 08:01:41;;;;;;;8.50;6.00;;;14.30;99.90;;;;;;4184757;28;20864;-70
2023/08/31 08:03:43;;;;;;;8.63;5.87;;;14.50;99.90;;;;;;4192012;28;20229;-71
2023/08/31 08:05:45;;;;;;;10.37;6.43;;;14.60;99.90;;;;;;4188565;28;20748;-73
2023/08/31 08:07:47;;;;;;;7.57;5.13;;;14.80;99.90;;;;;;4189912;28;20206;-71
2023/08/31 08:09:49;;;;;;;8.10;4.87;;;14.80;99.90;;;;;;4192790;28;20210;-72
2023/08/31 08:11:53;;;;;;;6.37;4.70;;;14.90;99.90;;;;;;4190473;28;20619;-71
2023/08/31 08:13:55;;;;;;;12.83;6.20;;;15.00;99.90;;;;;;4194528;28;20220;-70
2023/08/31 08:15:57;;;;;;;6.93;4.43;;;15.00;99.90;;;;;;4193251;28;20222;-72
2023/08/31 08:17:59;;;;;;;7.70;4.50;;;15.00;99.90;;;;;;4188182;28;20213;-71
2023/08/31 08:20:01;;;;;;;10.17;5.13;;;15.00;99.90;;;;;;4191288;28;20222;-71
2023/08/31 08:22:03;;;;;;;6.73;4.27;;;15.10;99.90;;;;;;4185893;28;20737;-71
2023/08/31 08:24:05;;;;;;;9.23;4.63;;;15.10;99.90;;;;;;4188413;28;20683;-72
2023/08/31 08:26:07;;;;;;;11.57;4.73;;;15.10;99.90;;;;;;4187965;28;20211;-72
2023/08/31 08:28:09;;;;;;;6.03;4.27;;;15.10;99.90;;;;;;4184955;28;20232;-74
2023/08/31 08:30:12;;;;;;;9.60;5.10;;;15.20;99.90;;;;;;4186658;28;20340;-70
2023/08/31 08:32:14;;;;;;;8.40;5.27;;;15.30;99.90;;;;;;4185954;28;20205;-70
2023/08/31 08:34:16;;;;;;;6.43;4.07;;;15.30;99.90;;;;;;4187242;28;20211;-70
2023/08/31 08:36:17;;;;;;;11.43;4.63;;;15.30;99.90;;;;;;4185983;28;20619;-73
2023/08/31 08:38:20;;;;;;;8.97;4.43;;;15.20;99.90;;;;;;4186122;28;20222;-71
2023/08/31 08:40:22;;;;;;;9.40;4.70;;;15.20;99.90;;;;;;4186011;28;20225;-71
2023/08/31 08:42:25;;;;;;;7.07;4.70;;;15.10;99.90;;;;;;4184992;28;20209;-70
2023/08/31 08:44:34;;;;;;;7.33;4.30;;;15.10;99.90;;;;;;4187524;28;20222;-71
2023/08/31 08:46:37;;;;;;;7.77;4.60;;;15.10;99.90;;;;;;4185048;28;20358;-70
2023/08/31 08:48:40;;;;;;;7.63;4.30;;;15.10;99.90;;;;;;4186143;28;20214;-70
2023/08/31 08:50:42;;;;;;;9.27;4.87;;;15.10;99.90;;;;;;4188885;28;20233;-69
2023/08/31 08:52:45;;;;;;;7.17;4.83;;;15.20;99.90;;;;;;4189221;28;20267;-70
2023/08/31 08:54:49;;;;;;;6.50;4.63;;;15.20;99.90;;;;;;4189837;28;20207;-70
2023/08/31 08:56:51;;;;;;;10.23;5.20;;;15.20;99.90;;;;;;4189145;28;20740;-69
2023/08/31 08:58:53;;;;;;;7.23;4.80;;;15.30;99.90;;;;;;4189246;28;20221;-70
2023/08/31 09:00:57;;;;;;;8.07;4.60;;;15.30;99.90;;;;;;4190007;28;20700;-70
2023/08/31 09:03:00;;;;;;;5.83;4.70;;;15.40;99.90;;;;;;4192281;28;20201;-71
2023/08/31 09:05:02;;;;;;;7.07;4.77;;;15.50;99.90;;;;;;4197929;28;20211;-73
2023/08/31 09:07:04;;;;;;;6.63;4.47;;;15.50;99.90;;;;;;4193257;28;21229;-72
2023/08/31 09:09:08;;;;;;;5.93;4.23;;;15.60;99.90;;;;;;4192101;28;20609;-72
2023/08/31 09:11:22;;;;;;;6.83;4.77;;;15.60;99.90;;;;;;4196476;28;20276;-76
2023/08/31 09:13:28;;;;;;;8.03;4.60;;;15.60;99.90;;;;;;4191980;28;20306;-74
2023/08/31 09:15:37;;;;;;;6.60;3.87;;;15.70;99.90;;;;;;4189526;28;20211;-72
2023/08/31 09:17:44;;;;;;;8.90;4.10;;;15.60;99.90;;;;;;4192315;28;20208;-72
2023/08/31 09:19:59;;;;;;;6.27;4.00;;;15.70;99.90;;;;;;4192074;28;20202;-74
2023/08/31 09:22:01;;;;;;;9.10;4.40;;;15.70;99.90;;;;;;4186993;28;20207;-74
2023/08/31 09:24:03;;;;;;;5.87;3.80;;;15.80;99.90;;;;;;4187464;28;20207;-74
2023/08/31 09:26:05;;;;;;;6.87;3.70;;;15.80;99.90;;;;;;4195480;28;20210;-75
2023/08/31 09:28:06;;;;;;;10.20;5.60;;;15.70;99.90;;;;;;4197017;28;21025;-74
2023/08/31 09:30:09;;;;;;;8.53;5.63;;;15.50;99.90;;;;;;4193852;28;21050;-77
2023/08/31 09:32:11;;;;;;;9.03;5.40;;;15.00;99.90;;;;;;4192087;28;20289;-78
2023/08/31 09:34:15;;;;;;;6.50;4.07;;;14.70;99.90;;;;;;4189360;28;20210;-77
2023/08/31 09:36:16;;;;;;;5.73;3.47;;;14.40;99.90;;;;;;4185975;28;20213;-75
2023/08/31 09:38:19;;;;;;;6.53;3.20;;;14.20;99.90;;;;;;4189714;28;20297;-74
2023/08/31 09:40:20;;;;;;;4.83;2.60;;;14.00;99.90;;;;;;4192544;28;20226;-76
2023/08/31 09:42:22;;;;;;;5.00;2.67;;;14.00;99.90;;;;;;4188991;28;20664;-75
2023/08/31 09:44:23;;;;;;;4.43;2.57;;;14.00;99.90;;;;;;4195151;28;20801;-75
2023/08/31 09:46:25;;;;;;;4.63;3.03;;;13.90;99.90;;;;;;4193863;28;20207;-75
2023/08/31 09:48:27;;;;;;;5.53;2.93;;;14.10;99.90;;;;;;4192413;28;20607;-75
2023/08/31 09:50:33;;;;;;;5.53;2.87;;;14.00;99.90;;;;;;4188229;28;20991;-75
2023/08/31 09:52:36;;;;;;;4.33;2.70;;;13.90;99.90;;;;;;4188869;28;20206;-75
2023/08/31 09:54:38;;;;;;;2.80;2.03;;;14.10;99.90;;;;;;4187879;28;20609;-75
2023/08/31 09:56:42;;;;;;;2.73;2.20;;;14.10;99.90;;;;;;4193100;28;20203;-76
2023/08/31 09:58:45;;;;;;;4.63;2.70;;;14.30;99.90;;;;;;4183907;28;20216;-76
2023/08/31 10:00:48;;;;;;;4.50;2.33;;;14.30;99.90;;;;;;4191602;28;20234;-75
2023/08/31 10:02:50;;;;;;;4.10;2.20;;;14.40;99.90;;;;;;4183507;28;20198;-74
2023/08/31 10:04:54;;;;;;;6.53;2.40;;;14.40;99.90;;;;;;4187559;28;20239;-74
2023/08/31 10:06:57;;;;;;;3.60;2.50;;;14.70;99.90;;;;;;4191202;28;20258;-75
2023/08/31 10:09:00;;;;;;;5.30;3.20;;;15.00;99.90;;;;;;4188638;28;20278;-76
2023/08/31 10:11:03;;;;;;;4.73;2.60;;;15.10;99.90;;;;;;4189910;28;20217;-74
2023/08/31 10:13:06;;;;;;;5.73;2.50;;;15.40;99.90;;;;;;4189485;28;20208;-74
2023/08/31 10:15:09;;;;;;;5.73;2.70;;;15.40;99.90;;;;;;4186476;28;20271;-74
2023/08/31 10:17:11;;;;;;;4.93;2.67;;;15.30;99.90;;;;;;4186489;28;20264;-75
2023/08/31 10:19:12;;;;;;;4.70;2.50;;;15.40;99.90;;;;;;4188453;28;20218;-74
2023/08/31 10:21:18;;;;;;;7.17;4.00;;;15.30;99.90;;;;;;4191433;28;20240;-75
2023/08/31 10:23:22;;;;;;;3.97;2.73;;;15.20;99.90;;;;;;4187763;28;20195;-75
2023/08/31 10:25:24;;;;;;;7.17;2.90;;;15.10;99.90;;;;;;4205615;28;20258;-74
2023/08/31 10:27:26;;;;;;;5.77;3.10;;;15.00;99.90;;;;;;4189739;28;20224;-75
2023/08/31 10:29:29;;;;;;;6.93;3.40;;;15.00;99.90;;;;;;4190335;28;20207;-75
2023/08/31 10:31:32;;;;;;;5.83;3.27;;;15.20;99.90;;;;;;4187890;28;20227;-74
2023/08/31 10:33:34;;;;;;;4.90;3.30;;;15.30;99.90;;;;;;4187097;28;20208;-75
2023/08/31 10:35:42;;;;;;;5.47;3.13;;;15.50;99.90;;;;;;4190932;28;20217;-75